createdAt,value
2023-05-16T00:01:01.458Z,11.14
2023-05-16T00:03:28.044Z,11.12
2023-05-16T00:05:56.264Z,10.99
2023-05-16T00:08:22.886Z,11.01
2023-05-16T00:10:49.288Z,10.98
2023-05-16T00:13:16.179Z,11.01
2023-05-16T00:15:44.370Z,10.95
2023-05-16T00:18:14.689Z,11.00
2023-05-16T00:20:42.085Z,10.89
2023-05-16T00:23:08.624Z,10.94
2023-05-16T00:25:36.401Z,10.91
2023-05-16T00:28:03.028Z,10.88
2023-05-16T00:30:29.829Z,10.91
2023-05-16T00:32:56.509Z,10.86
2023-05-16T00:35:23.154Z,10.78
2023-05-16T00:37:50.998Z,10.79
2023-05-16T00:40:17.439Z,10.64
2023-05-16T00:42:43.941Z,10.64
2023-05-16T00:45:12.015Z,10.69
2023-05-16T00:47:38.534Z,10.57
2023-05-16T00:50:06.063Z,10.50
2023-05-16T00:52:33.633Z,10.42
2023-05-16T00:55:00.564Z,10.54
2023-05-16T00:57:27.647Z,10.41
2023-05-16T00:59:54.959Z,10.50
2023-05-16T01:02:21.914Z,10.52
2023-05-16T01:04:49.540Z,10.47
2023-05-16T01:07:15.957Z,10.43
2023-05-16T01:09:42.526Z,10.48
2023-05-16T01:12:24.216Z,10.40
2023-05-16T01:15:05.072Z,10.39
2023-05-16T01:17:57.438Z,10.30
2023-05-16T01:20:45.948Z,10.27
2023-05-16T01:23:31.017Z,10.23
2023-05-16T01:26:23.223Z,10.10
2023-05-16T01:28:51.260Z,10.21
2023-05-16T01:31:18.648Z,10.17
2023-05-16T01:33:45.417Z,10.17
2023-05-16T01:36:41.647Z,10.19
2023-05-16T01:39:26.923Z,10.14
2023-05-16T01:42:09.059Z,10.19
2023-05-16T01:44:43.304Z,10.17
2023-05-16T01:47:12.896Z,10.14
2023-05-16T01:49:46.383Z,10.15
2023-05-16T01:52:20.313Z,10.24
2023-05-16T01:54:49.667Z,10.18
2023-05-16T01:57:17.241Z,10.23
2023-05-16T01:59:45.776Z,10.21
2023-05-16T02:02:12.162Z,10.21
2023-05-16T02:04:39.729Z,10.09
2023-05-16T02:07:06.303Z,10.11
2023-05-16T02:09:32.836Z,10.07
2023-05-16T02:12:00.292Z,10.18
2023-05-16T02:14:26.965Z,10.21
2023-05-16T02:16:53.467Z,10.11
2023-05-16T02:19:21.041Z,10.25
2023-05-16T02:21:47.451Z,10.27
2023-05-16T02:24:14.257Z,10.09
2023-05-16T02:26:41.035Z,10.10
2023-05-16T02:29:07.580Z,10.11
2023-05-16T02:31:34.933Z,10.09
2023-05-16T02:34:01.679Z,10.10
2023-05-16T02:36:28.407Z,10.13
2023-05-16T02:38:54.844Z,10.04
2023-05-16T02:41:22.231Z,10.06
2023-05-16T02:43:49.578Z,10.01
2023-05-16T02:46:33.620Z,10.03
2023-05-16T02:49:00.603Z,9.85
2023-05-16T02:51:28.878Z,9.92
2023-05-16T02:53:59.945Z,9.90
2023-05-16T02:56:26.565Z,9.97
2023-05-16T02:58:54.409Z,9.95
2023-05-16T03:01:21.133Z,9.87
2023-05-16T03:03:47.827Z,9.71
2023-05-16T03:06:14.431Z,9.69
2023-05-16T03:08:41.841Z,9.66
2023-05-16T03:11:08.252Z,9.69
2023-05-16T03:13:35.111Z,9.64
2023-05-16T03:16:02.111Z,9.56
2023-05-16T03:18:28.665Z,9.60
2023-05-16T03:20:55.431Z,9.57
2023-05-16T03:23:22.379Z,9.52
2023-05-16T03:25:49.041Z,9.54
2023-05-16T03:28:16.941Z,9.45
2023-05-16T03:30:43.756Z,9.41
2023-05-16T03:33:10.312Z,9.42
2023-05-16T03:35:37.064Z,9.41
2023-05-16T03:38:03.844Z,9.31
2023-05-16T03:40:32.999Z,9.27
2023-05-16T03:42:59.430Z,9.22
2023-05-16T03:45:26.668Z,9.18
2023-05-16T03:47:53.602Z,9.13
2023-05-16T03:50:20.043Z,9.22
2023-05-16T03:52:46.521Z,9.24
2023-05-16T03:55:14.999Z,9.22
2023-05-16T03:57:44.873Z,9.17
2023-05-16T04:00:12.853Z,9.07
2023-05-16T04:02:44.428Z,8.99
2023-05-16T04:05:12.472Z,8.95
2023-05-16T04:07:39.425Z,8.93
2023-05-16T04:10:06.542Z,8.86
2023-05-16T04:12:33.418Z,8.92
2023-05-16T04:14:59.845Z,8.82
2023-05-16T04:17:26.815Z,8.78
2023-05-16T04:19:53.308Z,8.72
2023-05-16T04:22:22.832Z,8.61
2023-05-16T04:24:49.885Z,8.50
2023-05-16T04:27:16.559Z,8.47
2023-05-16T04:29:43.106Z,8.45
2023-05-16T04:32:09.870Z,8.48
2023-05-16T04:34:39.876Z,8.44
2023-05-16T04:37:07.640Z,8.41
2023-05-16T04:39:35.704Z,8.34
2023-05-16T04:42:04.275Z,8.30
2023-05-16T04:44:31.008Z,8.25
2023-05-16T04:46:57.761Z,8.25
2023-05-16T04:49:24.322Z,8.22
2023-05-16T04:51:50.914Z,8.17
2023-05-16T04:54:17.400Z,8.27
2023-05-16T04:56:43.939Z,8.17
2023-05-16T04:59:10.674Z,8.18
2023-05-16T05:01:37.245Z,8.21
2023-05-16T05:04:04.332Z,8.33
2023-05-16T05:06:31.462Z,8.22
2023-05-16T05:08:58.316Z,8.36
2023-05-16T05:11:24.940Z,8.25
2023-05-16T05:13:52.979Z,8.13
2023-05-16T05:16:19.616Z,8.16
2023-05-16T05:18:46.158Z,8.33
2023-05-16T05:21:12.671Z,8.24
2023-05-16T05:23:40.305Z,8.29
2023-05-16T05:26:06.825Z,8.36
2023-05-16T05:28:33.672Z,8.38
2023-05-16T05:31:00.528Z,8.32
2023-05-16T05:33:29.261Z,8.28
2023-05-16T05:35:56.030Z,8.26
2023-05-16T05:38:23.149Z,8.31
2023-05-16T05:40:49.760Z,8.35
2023-05-16T05:43:16.198Z,8.38
2023-05-16T05:45:44.488Z,8.36
2023-05-16T05:48:12.812Z,8.37
2023-05-16T05:50:40.082Z,8.37
2023-05-16T05:53:06.693Z,8.42
2023-05-16T05:55:33.283Z,8.42
2023-05-16T05:57:59.765Z,8.55
2023-05-16T06:00:26.377Z,8.48
2023-05-16T06:02:53.385Z,8.41
2023-05-16T06:05:20.179Z,8.32
2023-05-16T06:07:46.580Z,8.34
2023-05-16T06:10:13.151Z,8.31
2023-05-16T06:12:39.545Z,8.21
2023-05-16T06:15:06.697Z,8.19
2023-05-16T06:17:33.642Z,8.16
2023-05-16T06:20:00.142Z,8.13
2023-05-16T06:22:26.860Z,8.16
2023-05-16T06:24:53.380Z,8.17
2023-05-16T06:27:20.144Z,8.07
2023-05-16T06:29:46.659Z,8.02
2023-05-16T06:32:13.632Z,7.99
2023-05-16T06:34:40.090Z,7.96
2023-05-16T06:37:06.708Z,8.02
2023-05-16T06:39:33.664Z,7.92
2023-05-16T06:42:00.110Z,7.99
2023-05-16T06:44:27.887Z,7.92
2023-05-16T06:46:54.405Z,7.86
2023-05-16T06:49:21.212Z,7.81
2023-05-16T06:51:47.765Z,8.13
2023-05-16T06:54:14.182Z,8.25
2023-05-16T06:56:40.749Z,8.50
2023-05-16T06:59:07.436Z,8.92
2023-05-16T07:01:33.966Z,8.85
2023-05-16T07:04:00.467Z,8.97
2023-05-16T07:06:27.144Z,8.75
2023-05-16T07:08:53.580Z,8.54
2023-05-16T07:11:20.430Z,8.64
2023-05-16T07:13:47.275Z,8.70
2023-05-16T07:16:13.834Z,8.52
2023-05-16T07:18:40.708Z,8.29
2023-05-16T07:21:08.159Z,8.30
2023-05-16T07:23:34.611Z,8.36
2023-05-16T07:26:01.123Z,8.48
2023-05-16T07:28:27.560Z,8.50
2023-05-16T07:30:55.072Z,8.44
2023-05-16T07:33:21.478Z,8.52
2023-05-16T07:35:48.206Z,8.79
2023-05-16T07:38:15.029Z,9.04
2023-05-16T07:40:41.864Z,9.33
2023-05-16T07:43:08.435Z,9.46
2023-05-16T07:45:35.509Z,9.42
2023-05-16T07:48:02.032Z,9.13
2023-05-16T07:50:29.104Z,8.83
2023-05-16T07:52:55.731Z,8.64
2023-05-16T07:55:22.238Z,8.82
2023-05-16T07:57:50.210Z,8.97
2023-05-16T08:00:17.782Z,9.16
2023-05-16T08:02:44.593Z,9.41
2023-05-16T08:05:11.286Z,9.87
2023-05-16T08:07:37.793Z,10.37
2023-05-16T08:10:04.912Z,10.61
2023-05-16T08:12:31.986Z,10.62
2023-05-16T08:14:58.432Z,10.47
2023-05-16T08:17:24.937Z,10.34
2023-05-16T08:19:51.397Z,10.23
2023-05-16T08:22:18.041Z,9.80
2023-05-16T08:24:44.858Z,9.89
2023-05-16T08:27:12.124Z,9.79
2023-05-16T08:29:38.570Z,9.43
2023-05-16T08:32:06.501Z,9.58
2023-05-16T08:34:33.769Z,9.51
2023-05-16T08:37:00.488Z,9.51
2023-05-16T08:39:27.514Z,9.73
2023-05-16T08:41:54.119Z,10.04
2023-05-16T08:44:22.069Z,10.23
2023-05-16T08:46:56.586Z,10.17
2023-05-16T08:49:26.840Z,10.35
2023-05-16T08:51:58.584Z,10.50
2023-05-16T08:54:27.442Z,10.50
2023-05-16T08:56:55.173Z,10.62
2023-05-16T08:59:21.757Z,10.97
2023-05-16T09:01:48.985Z,11.03
2023-05-16T09:04:16.327Z,10.82
2023-05-16T09:06:43.412Z,11.01
2023-05-16T09:09:12.803Z,10.72
2023-05-16T09:11:39.713Z,10.46
2023-05-16T09:14:06.243Z,10.61
2023-05-16T09:16:32.786Z,10.86
2023-05-16T09:19:02.120Z,11.22
2023-05-16T09:21:32.870Z,11.30
2023-05-16T09:24:10.115Z,11.15
2023-05-16T09:26:38.923Z,11.49
2023-05-16T09:29:12.801Z,11.51
2023-05-16T09:31:40.068Z,11.43
2023-05-16T09:34:08.954Z,11.43
2023-05-16T09:36:36.416Z,11.45
2023-05-16T09:39:05.807Z,11.24
2023-05-16T09:41:36.394Z,11.11
2023-05-16T09:44:06.958Z,11.39
2023-05-16T09:46:38.434Z,11.72
2023-05-16T09:49:05.020Z,12.00
2023-05-16T09:51:31.996Z,12.06
2023-05-16T09:54:00.210Z,12.24
2023-05-16T09:56:27.181Z,11.85
2023-05-16T09:58:54.074Z,11.81
2023-05-16T10:01:20.807Z,11.76
2023-05-16T10:03:47.870Z,11.71
2023-05-16T10:06:16.544Z,11.75
2023-05-16T10:08:44.021Z,11.93
2023-05-16T10:11:11.671Z,12.12
2023-05-16T10:13:39.094Z,12.35
2023-05-16T10:16:12.607Z,12.29
2023-05-16T10:18:42.577Z,12.45
2023-05-16T10:21:13.739Z,12.74
2023-05-16T10:23:47.414Z,12.71
2023-05-16T10:26:16.644Z,12.98
2023-05-16T10:28:43.478Z,13.28
2023-05-16T10:31:11.872Z,13.49
2023-05-16T10:33:40.157Z,13.61
2023-05-16T10:36:09.019Z,13.55
2023-05-16T10:38:37.947Z,13.17
2023-05-16T10:41:05.042Z,12.86
2023-05-16T10:43:33.322Z,12.89
2023-05-16T10:46:04.712Z,13.05
2023-05-16T10:48:36.683Z,12.54
2023-05-16T10:51:04.880Z,12.90
2023-05-16T10:53:34.334Z,13.25
2023-05-16T10:56:03.648Z,13.35
2023-05-16T10:58:39.393Z,13.37
2023-05-16T11:01:32.754Z,13.57
2023-05-16T11:04:02.539Z,13.74
2023-05-16T11:06:34.360Z,13.44
2023-05-16T11:09:06.837Z,13.26
2023-05-16T11:11:49.358Z,13.69
2023-05-16T11:14:34.967Z,14.03
2023-05-16T11:17:06.604Z,14.08
2023-05-16T11:19:47.958Z,14.10
2023-05-16T11:22:23.797Z,13.66
2023-05-16T11:24:52.478Z,13.08
2023-05-16T11:27:24.213Z,12.81
2023-05-16T11:29:51.410Z,13.20
2023-05-16T11:32:23.281Z,13.48
2023-05-16T11:34:51.867Z,13.71
2023-05-16T11:37:20.434Z,14.19
2023-05-16T11:39:47.399Z,13.94
2023-05-16T11:42:13.972Z,13.77
2023-05-16T11:44:41.153Z,14.14
2023-05-16T11:47:08.379Z,14.20
2023-05-16T11:49:35.589Z,13.98
2023-05-16T11:52:03.144Z,14.23
2023-05-16T11:54:30.737Z,14.19
2023-05-16T11:56:57.551Z,14.21
2023-05-16T11:59:24.295Z,14.29
2023-05-16T12:01:50.732Z,14.58
2023-05-16T12:04:18.165Z,14.28
2023-05-16T12:06:45.075Z,14.16
2023-05-16T12:09:18.242Z,14.54
2023-05-16T12:11:45.272Z,14.53
2023-05-16T12:14:13.489Z,14.33
2023-05-16T12:16:44.271Z,14.24
2023-05-16T12:19:11.685Z,14.10
2023-05-16T12:21:39.069Z,14.11
2023-05-16T12:24:09.176Z,13.97
2023-05-16T12:26:35.822Z,14.00
2023-05-16T12:29:06.156Z,14.33
2023-05-16T12:31:37.029Z,14.63
2023-05-16T12:34:03.544Z,14.66
2023-05-16T12:36:36.730Z,15.12
2023-05-16T12:39:04.253Z,15.15
2023-05-16T12:41:31.622Z,15.26
2023-05-16T12:44:12.557Z,15.79
2023-05-16T12:46:46.957Z,15.61
2023-05-16T12:49:13.923Z,15.40
2023-05-16T12:51:41.427Z,15.83
2023-05-16T12:54:11.830Z,15.60
2023-05-16T12:56:40.061Z,15.60
2023-05-16T12:59:06.995Z,15.45
2023-05-16T13:01:35.322Z,15.70
2023-05-16T13:04:05.868Z,14.88
2023-05-16T13:06:48.936Z,14.29
2023-05-16T13:09:19.279Z,14.51
2023-05-16T13:11:45.922Z,14.22
2023-05-16T13:14:12.932Z,14.40
2023-05-16T13:16:39.775Z,14.60
2023-05-16T13:19:08.168Z,14.78
2023-05-16T13:21:34.680Z,15.36
2023-05-16T13:24:01.287Z,15.51
2023-05-16T13:26:28.243Z,15.52
2023-05-16T13:28:55.093Z,15.81
2023-05-16T13:31:25.336Z,15.13
2023-05-16T13:33:52.030Z,14.86
2023-05-16T13:36:18.472Z,15.00
2023-05-16T13:38:44.964Z,15.60
2023-05-16T13:41:12.914Z,15.72
2023-05-16T13:43:39.349Z,16.16
2023-05-16T13:46:06.091Z,16.44
2023-05-16T13:48:33.158Z,16.41
2023-05-16T13:50:59.693Z,15.89
2023-05-16T13:53:26.723Z,14.81
2023-05-16T13:55:53.300Z,14.80
2023-05-16T13:58:20.235Z,15.03
2023-05-16T14:00:48.406Z,14.86
2023-05-16T14:03:15.572Z,14.72
2023-05-16T14:05:42.378Z,14.25
2023-05-16T14:08:08.985Z,14.32
2023-05-16T14:10:35.604Z,14.69
2023-05-16T14:13:02.445Z,15.04
2023-05-16T14:15:29.155Z,14.70
2023-05-16T14:17:55.873Z,14.61
2023-05-16T14:20:22.893Z,14.96
2023-05-16T14:22:49.325Z,15.66
2023-05-16T14:25:16.078Z,15.68
2023-05-16T14:27:42.476Z,15.87
2023-05-16T14:30:09.623Z,15.30
2023-05-16T14:32:36.319Z,14.98
2023-05-16T14:35:05.261Z,15.28
2023-05-16T14:37:31.818Z,15.70
2023-05-16T14:39:59.650Z,16.06
2023-05-16T14:42:26.495Z,15.89
2023-05-16T14:44:53.100Z,15.77
2023-05-16T14:47:20.175Z,14.95
2023-05-16T14:49:46.734Z,14.81
2023-05-16T14:52:13.628Z,14.98
2023-05-16T14:54:40.547Z,15.20
2023-05-16T14:57:07.358Z,15.00
2023-05-16T14:59:34.175Z,15.43
2023-05-16T15:02:00.850Z,15.42
2023-05-16T15:04:29.242Z,15.48
2023-05-16T15:06:56.816Z,15.54
2023-05-16T15:09:23.260Z,15.26
2023-05-16T15:11:51.198Z,15.24
2023-05-16T15:14:18.172Z,14.91
2023-05-16T15:16:44.803Z,14.74
2023-05-16T15:19:11.568Z,14.69
2023-05-16T15:21:38.379Z,14.67
2023-05-16T15:24:05.198Z,14.67
2023-05-16T15:26:32.634Z,14.79
2023-05-16T15:28:59.218Z,14.80
2023-05-16T15:31:26.310Z,14.70
2023-05-16T15:33:52.825Z,14.39
2023-05-16T15:36:19.566Z,14.10
2023-05-16T15:38:47.521Z,14.16
2023-05-16T15:41:22.311Z,13.97
2023-05-16T15:43:58.231Z,14.00
2023-05-16T15:46:24.732Z,13.99
2023-05-16T15:48:51.327Z,13.99
2023-05-16T15:51:17.748Z,13.98
2023-05-16T15:53:45.036Z,13.96
2023-05-16T15:56:12.320Z,13.81
2023-05-16T15:58:38.931Z,13.81
2023-05-16T16:01:05.878Z,13.67
2023-05-16T16:03:32.965Z,13.44
2023-05-16T16:05:59.479Z,13.28
2023-05-16T16:08:25.997Z,13.23
2023-05-16T16:10:52.906Z,13.12
2023-05-16T16:13:19.457Z,13.09
2023-05-16T16:15:46.414Z,13.03
2023-05-16T16:18:13.899Z,13.07
2023-05-16T16:20:41.017Z,13.04
2023-05-16T16:23:08.108Z,13.16
2023-05-16T16:25:34.821Z,13.19
2023-05-16T16:28:01.801Z,13.11
2023-05-16T16:30:28.231Z,13.21
2023-05-16T16:32:54.759Z,13.14
2023-05-16T16:35:22.457Z,13.29
2023-05-16T16:38:02.372Z,13.24
2023-05-16T16:40:32.504Z,13.28
2023-05-16T16:42:59.366Z,13.35
2023-05-16T16:45:27.292Z,13.30
2023-05-16T16:47:54.096Z,13.52
2023-05-16T16:50:20.616Z,13.82
2023-05-16T16:52:47.711Z,14.10
2023-05-16T16:55:14.869Z,14.06
2023-05-16T16:57:42.843Z,14.04
2023-05-16T17:00:11.430Z,14.16
2023-05-16T17:02:38.218Z,14.12
2023-05-16T17:05:08.649Z,14.14
2023-05-16T17:07:35.566Z,14.31
2023-05-16T17:10:04.633Z,14.24
2023-05-16T17:12:34.599Z,14.05
2023-05-16T17:15:01.860Z,13.57
2023-05-16T17:17:29.028Z,13.34
2023-05-16T17:19:55.713Z,13.14
2023-05-16T17:22:22.445Z,12.92
2023-05-16T17:24:49.390Z,12.84
2023-05-16T17:27:15.933Z,12.71
2023-05-16T17:29:42.471Z,12.65
2023-05-16T17:32:09.197Z,12.70
2023-05-16T17:34:35.886Z,12.88
2023-05-16T17:37:04.297Z,12.98
2023-05-16T17:39:32.043Z,13.07
2023-05-16T17:41:59.628Z,12.90
2023-05-16T17:44:26.236Z,12.59
2023-05-16T17:46:53.640Z,12.40
2023-05-16T17:49:21.420Z,12.32
2023-05-16T17:51:56.383Z,12.21
2023-05-16T17:54:24.011Z,12.08
2023-05-16T17:56:51.136Z,12.06
2023-05-16T17:59:17.877Z,12.05
2023-05-16T18:01:45.066Z,12.01
2023-05-16T18:04:12.251Z,12.08
2023-05-16T18:06:39.163Z,11.91
2023-05-16T18:09:07.314Z,11.92
2023-05-16T18:11:34.341Z,11.78
2023-05-16T18:14:02.317Z,11.71
2023-05-16T18:16:30.613Z,11.69
2023-05-16T18:18:58.621Z,11.73
2023-05-16T18:21:27.627Z,11.68
2023-05-16T18:23:56.479Z,11.57
2023-05-16T18:26:24.550Z,11.41
2023-05-16T18:28:51.098Z,11.41
2023-05-16T18:31:17.684Z,11.36
2023-05-16T18:33:44.359Z,11.36
2023-05-16T18:36:10.804Z,11.39
2023-05-16T18:38:37.687Z,11.32
2023-05-16T18:41:04.279Z,11.30
2023-05-16T18:43:30.998Z,11.22
2023-05-16T18:45:57.817Z,11.16
2023-05-16T18:48:24.482Z,11.16
2023-05-16T18:50:51.322Z,11.19
2023-05-16T18:53:17.950Z,11.13
2023-05-16T18:55:44.417Z,11.09
2023-05-16T18:58:11.454Z,11.09
2023-05-16T19:00:37.951Z,11.05
2023-05-16T19:03:04.869Z,11.04
2023-05-16T19:05:33.781Z,11.02
2023-05-16T19:08:01.012Z,10.95
2023-05-16T19:10:27.748Z,10.86
2023-05-16T19:12:54.632Z,10.76
2023-05-16T19:15:21.089Z,10.75
2023-05-16T19:17:48.221Z,10.72
2023-05-16T19:20:15.092Z,10.75
2023-05-16T19:22:41.528Z,10.71
2023-05-16T19:25:08.861Z,10.58
2023-05-16T19:27:39.737Z,10.57
2023-05-16T19:30:07.512Z,10.61
2023-05-16T19:32:34.014Z,10.56
2023-05-16T19:35:01.023Z,10.60
2023-05-16T19:37:27.565Z,10.56
2023-05-16T19:39:54.065Z,10.47
2023-05-16T19:42:20.788Z,10.48
2023-05-16T19:44:47.418Z,10.46
2023-05-16T19:47:14.886Z,10.45
2023-05-16T19:49:41.766Z,10.42
2023-05-16T19:52:09.150Z,10.39
2023-05-16T19:54:36.074Z,10.37
2023-05-16T19:57:02.524Z,10.36
2023-05-16T19:59:29.400Z,10.30
2023-05-16T20:01:55.840Z,10.34
2023-05-16T20:04:22.506Z,10.46
2023-05-16T20:06:49.579Z,10.38
2023-05-16T20:09:16.364Z,10.42
2023-05-16T20:11:43.650Z,10.36
2023-05-16T20:14:10.201Z,10.41
2023-05-16T20:16:37.253Z,10.35
2023-05-16T20:19:04.289Z,10.37
2023-05-16T20:21:31.030Z,10.29
2023-05-16T20:23:57.702Z,10.32
2023-05-16T20:26:24.340Z,10.34
2023-05-16T20:28:50.924Z,10.34
2023-05-16T20:31:17.393Z,10.41
2023-05-16T20:33:44.274Z,10.38
2023-05-16T20:36:10.869Z,10.28
2023-05-16T20:38:38.704Z,10.26
2023-05-16T20:41:05.387Z,10.30
2023-05-16T20:43:31.820Z,10.27
2023-05-16T20:45:58.313Z,10.17
2023-05-16T20:48:27.152Z,10.29
2023-05-16T20:50:54.749Z,10.20
2023-05-16T20:53:21.905Z,10.19
2023-05-16T20:55:48.450Z,10.20
2023-05-16T20:58:15.756Z,10.23
2023-05-16T21:00:42.220Z,10.20
2023-05-16T21:03:09.340Z,10.23
2023-05-16T21:05:36.304Z,10.19
2023-05-16T21:08:04.807Z,10.21
2023-05-16T21:10:31.637Z,10.20
2023-05-16T21:12:58.367Z,10.23
2023-05-16T21:15:25.856Z,10.21
2023-05-16T21:17:52.560Z,10.15
2023-05-16T21:20:19.331Z,10.12
2023-05-16T21:22:45.817Z,10.17
2023-05-16T21:25:12.564Z,10.16
2023-05-16T21:27:39.856Z,10.08
2023-05-16T21:30:07.568Z,10.05
2023-05-16T21:32:34.044Z,10.12
2023-05-16T21:35:00.995Z,10.05
2023-05-16T21:37:27.901Z,10.00
2023-05-16T21:39:54.770Z,9.97
2023-05-16T21:42:21.236Z,9.82
2023-05-16T21:44:48.042Z,9.68
2023-05-16T21:47:14.531Z,9.57
2023-05-16T21:49:41.159Z,9.50
2023-05-16T21:52:07.978Z,9.46
2023-05-16T21:54:34.967Z,9.35
2023-05-16T21:57:01.473Z,9.27
2023-05-16T21:59:28.183Z,9.15
2023-05-16T22:01:54.607Z,9.16
2023-05-16T22:04:21.333Z,9.04
2023-05-16T22:06:48.286Z,8.95
2023-05-16T22:09:14.771Z,8.90
2023-05-16T22:11:41.512Z,8.79
2023-05-16T22:14:07.935Z,8.75
2023-05-16T22:16:34.766Z,8.61
2023-05-16T22:19:01.319Z,8.52
2023-05-16T22:21:28.014Z,8.37
2023-05-16T22:23:54.426Z,8.32
2023-05-16T22:26:22.092Z,8.22
2023-05-16T22:28:48.587Z,8.13
2023-05-16T22:31:15.307Z,8.09
2023-05-16T22:33:42.036Z,8.04
2023-05-16T22:36:08.810Z,8.00
2023-05-16T22:38:35.544Z,7.95
2023-05-16T22:41:01.940Z,7.93
2023-05-16T22:43:28.426Z,7.83
2023-05-16T22:45:55.348Z,7.76
2023-05-16T22:48:22.036Z,7.64
2023-05-16T22:50:48.622Z,7.58
2023-05-16T22:53:15.074Z,7.48
2023-05-16T22:55:41.904Z,7.48
2023-05-16T22:58:08.859Z,7.39
2023-05-16T23:00:35.474Z,7.29
2023-05-16T23:03:02.426Z,7.18
2023-05-16T23:05:29.320Z,7.13
2023-05-16T23:07:55.927Z,7.06
2023-05-16T23:10:22.833Z,7.07
2023-05-16T23:12:49.400Z,7.05
2023-05-16T23:15:15.904Z,7.02
2023-05-16T23:17:42.483Z,7.04
2023-05-16T23:20:09.341Z,7.07
2023-05-16T23:22:35.765Z,7.16
2023-05-16T23:25:02.916Z,7.20
2023-05-16T23:27:29.573Z,7.18
2023-05-16T23:29:56.040Z,7.21
2023-05-16T23:32:22.695Z,7.13
2023-05-16T23:34:49.957Z,7.08
2023-05-16T23:37:16.413Z,7.04
2023-05-16T23:39:44.167Z,7.00
2023-05-16T23:42:11.080Z,6.94
2023-05-16T23:44:39.572Z,6.89
2023-05-16T23:47:06.882Z,6.82
2023-05-16T23:49:33.341Z,6.79
2023-05-16T23:52:01.032Z,6.72
2023-05-16T23:54:27.732Z,6.62
2023-05-16T23:56:54.616Z,6.44
2023-05-16T23:59:21.515Z,6.35
